PWSweather.com
Personal Weather Stations
Station Observations
WISCHPK61
Green Bay Schmitt Park, Green Bay, WI 54311

Green Bay Schmitt ParkGreen Bay, WI 54311

Lat: 44.514277, Lon: -87.935067

Elevation: 735

Station Type: Acu Rite Pro Weather Center model 02032C

http://greenbayweathercam.com

High Low Average
Temperature 40.2°F4.6°C 18.1°F-7.7°C 26.8°F-2.9°C
Dew Point 39.9°F4.4°C 4.0°F-15.6°C 24.3°F-4.3°C
Winds 2.3 mph 3.7 kmh Calm Calm Calm WSWCalm WSW
Wind Gusts 5.8 mph9.3 kmh -- --
Humidity 99% 45% 92%
Pressure 29.60 in1002.4 mb 29.38 in994.9 mb -
Precipitation 0.06 in1.5 mm - -
Hour Temp Dew Point Humidity Winds Wind Gusts Pressure Precip Precip Rate Daily Precip Total
12:00 AM 27.1°F-2.7°C 26.9°F-2.8°C 99% 3.5 mph WNW5.6 kmh WNW 3.5 mph5.6 kmh 29.36 in994.2 mb - 0.00 in0.0 mm 0.00 in0.0 mm
01:00 AM 25.9°F-3.4°C 25.7°F-3.5°C 99% 1.2 mph NNW1.9 kmh NNW 5.8 mph9.3 kmh 29.38 in994.9 mb - 0.00 in0.0 mm 0.00 in0.0 mm
02:00 AM 24.6°F-4.1°C 24.4°F-4.2°C 99% Calm Calm -- 29.41 in995.9 mb - 0.00 in0.0 mm 0.00 in0.0 mm
03:00 AM 23.5°F-4.7°C 13.1°F-10.5°C 64% Calm Calm -- 29.44 in997.0 mb - 0.00 in0.0 mm 0.00 in0.0 mm
04:00 AM 22.1°F-5.5°C 21.9°F-5.6°C 99% Calm Calm -- 29.44 in997.0 mb - 0.00 in0.0 mm 0.00 in0.0 mm
05:00 AM 20.8°F-6.2°C 20.6°F-6.3°C 99% Calm Calm -- 29.45 in997.3 mb - 0.00 in0.0 mm 0.00 in0.0 mm
06:00 AM 19.8°F-6.8°C 19.6°F-6.9°C 99% Calm Calm -- 29.49 in998.6 mb - 0.00 in0.0 mm 0.00 in0.0 mm
07:00 AM 18.7°F-7.4°C 18.5°F-7.5°C 99% Calm Calm -- 29.51 in999.3 mb - 0.00 in0.0 mm 0.00 in0.0 mm
08:00 AM 18.1°F-7.7°C 6.2°F-14.3°C 59% Calm Calm -- 29.52 in999.7 mb - 0.00 in0.0 mm 0.00 in0.0 mm
09:00 AM 21.0°F-6.1°C 20.8°F-6.2°C 99% Calm Calm -- 29.54 in1000.3 mb - 0.00 in0.0 mm 0.00 in0.0 mm
10:00 AM 24.1°F-4.4°C 23.9°F-4.5°C 99% Calm Calm 1.2 mph1.9 kmh 29.55 in1000.7 mb - 0.00 in0.0 mm 0.00 in0.0 mm
11:00 AM 29.3°F-1.5°C 29.0°F-1.7°C 99% Calm Calm -- 29.56 in1001.0 mb - 0.00 in0.0 mm 0.00 in0.0 mm
12:00 PM 34.4°F1.3°C 34.2°F1.2°C 99% Calm Calm -- 29.56 in1001.0 mb - 0.00 in0.0 mm 0.00 in0.0 mm
01:00 PM 37.4°F3.0°C 37.2°F2.9°C 99% Calm Calm -- 29.57 in1001.4 mb - 0.01 in0.3 mm 0.01 in0.3 mm
02:00 PM 40.2°F4.6°C 39.9°F4.4°C 99% Calm Calm -- 29.56 in1001.0 mb - 0.01 in0.3 mm 0.02 in0.5 mm
03:00 PM 39.8°F4.3°C 39.6°F4.2°C 99% 2.3 mph W3.7 kmh W 2.3 mph3.7 kmh 29.55 in1000.7 mb - 0.03 in0.8 mm 0.05 in1.3 mm
04:00 PM 35.9°F2.2°C 35.6°F2.0°C 99% Calm Calm -- 29.55 in1000.7 mb - 0.01 in0.3 mm 0.06 in1.5 mm
05:00 PM 33.1°F0.6°C 32.9°F0.5°C 99% Calm Calm -- 29.55 in1000.7 mb - 0.00 in0.0 mm 0.06 in1.5 mm
06:00 PM 31.6°F-0.2°C 12.7°F-10.7°C 45% Calm Calm -- 29.55 in1000.7 mb - 0.00 in0.0 mm 0.06 in1.5 mm
07:00 PM 29.1°F-1.6°C 28.9°F-1.7°C 99% Calm Calm -- 29.55 in1000.7 mb - 0.00 in0.0 mm 0.06 in1.5 mm
08:00 PM 26.7°F-2.9°C 26.4°F-3.1°C 99% Calm Calm -- 29.56 in1001.0 mb - 0.00 in0.0 mm 0.06 in1.5 mm
09:00 PM 24.3°F-4.3°C 24.1°F-4.4°C 99% Calm Calm -- 29.59 in1002.0 mb - 0.00 in0.0 mm 0.06 in1.5 mm
10:00 PM 22.5°F-5.3°C 22.3°F-5.4°C 99% Calm Calm -- 29.60 in1002.4 mb - 0.00 in0.0 mm 0.06 in1.5 mm
11:00 PM 20.8°F-6.2°C 20.6°F-6.3°C 99% Calm Calm -- 29.60 in1002.4 mb - 0.00 in0.0 mm 0.06 in1.5 mm